Time;durP1;ratioP1;P1;durP2;ratioP2;P2;SDS_P1;SDS_P2;PMS_P1;PMS_P2;Temp;Humidity;BMP_temperature;BMP_pressure;BME280_temperature;BME280_humidity;BME280_pressure;Samples;Min_cycle;Max_cycle;Signal;HPM_P1;HPM_P2
2023/05/09 00:01:11;;;;;;;11.13;9.85;;;12.70;91.70;;;;;;5003301;28;20206;-49
2023/05/09 00:03:58;;;;;;;11.70;10.13;;;12.70;91.60;;;;;;4998367;28;20041;-51
2023/05/09 00:06:44;;;;;;;11.63;10.43;;;12.70;91.70;;;;;;5004323;28;20026;-50
2023/05/09 00:09:30;;;;;;;12.73;10.30;;;12.70;91.70;;;;;;5003857;28;20132;-53
2023/05/09 00:12:16;;;;;;;11.80;10.30;;;12.70;91.90;;;;;;5000476;28;20113;-50
2023/05/09 00:15:02;;;;;;;10.75;9.65;;;12.60;91.90;;;;;;5002567;28;20022;-51
2023/05/09 00:17:49;;;;;;;11.60;10.43;;;12.60;92.20;;;;;;5001860;28;20037;-53
2023/05/09 00:20:35;;;;;;;12.60;10.35;;;12.60;92.20;;;;;;4998960;28;20049;-52
2023/05/09 00:23:21;;;;;;;11.93;10.73;;;12.50;92.50;;;;;;5002392;28;20402;-51
2023/05/09 00:26:07;;;;;;;13.88;9.73;;;12.60;92.50;;;;;;4999823;28;20022;-51
2023/05/09 00:28:53;;;;;;;11.13;9.90;;;12.60;92.50;;;;;;5002547;28;20026;-49
2023/05/09 00:31:39;;;;;;;15.15;10.10;;;12.70;92.40;;;;;;5002281;28;20041;-49
2023/05/09 00:34:25;;;;;;;10.80;9.65;;;12.60;92.40;;;;;;4992661;28;20041;-52
2023/05/09 00:37:10;;;;;;;13.60;10.25;;;12.50;92.60;;;;;;5005002;28;20471;-51
2023/05/09 00:39:56;;;;;;;11.60;10.45;;;12.50;92.50;;;;;;4994245;28;20042;-49
2023/05/09 00:42:42;;;;;;;11.45;10.35;;;12.40;92.50;;;;;;4996702;28;20031;-53
2023/05/09 00:45:29;;;;;;;11.05;9.95;;;12.40;92.70;;;;;;4993108;28;20388;-53
2023/05/09 00:48:16;;;;;;;11.52;10.32;;;12.40;93.00;;;;;;4991187;28;20045;-52
2023/05/09 00:51:02;;;;;;;11.13;9.75;;;12.30;93.00;;;;;;4991842;28;20037;-49
2023/05/09 00:53:49;;;;;;;11.45;10.25;;;12.20;93.30;;;;;;4991458;28;20056;-50
2023/05/09 00:56:36;;;;;;;12.18;10.15;;;12.20;93.40;;;;;;4992080;28;20434;-52
2023/05/09 00:59:22;;;;;;;12.05;10.82;;;12.20;93.50;;;;;;4992259;28;20042;-51
2023/05/09 01:02:08;;;;;;;11.32;10.15;;;12.20;93.50;;;;;;4992260;28;20053;-50
2023/05/09 01:04:54;;;;;;;11.65;10.45;;;12.20;93.40;;;;;;4991067;28;20451;-49
2023/05/09 01:07:45;;;;;;;13.70;10.80;;;12.20;93.40;;;;;;4991619;28;20077;-49
2023/05/09 01:10:54;;;;;;;12.02;10.18;;;12.20;93.50;;;;;;4993293;28;20471;-50
2023/05/09 01:13:56;;;;;;;10.70;9.60;;;12.20;93.60;;;;;;4993819;28;20034;-49
2023/05/09 01:17:12;;;;;;;11.93;10.65;;;12.20;93.60;;;;;;4994934;28;20054;-51
2023/05/09 01:20:11;;;;;;;13.50;11.15;;;12.20;93.70;;;;;;4995518;28;20028;-49
2023/05/09 01:23:20;;;;;;;13.93;10.13;;;12.10;93.80;;;;;;4994319;28;20380;-51
2023/05/09 01:26:12;;;;;;;12.05;9.93;;;12.00;93.70;;;;;;4989167;28;20039;-51
2023/05/09 01:29:26;;;;;;;12.13;10.43;;;11.90;93.90;;;;;;4993765;28;20034;-49
2023/05/09 01:32:16;;;;;;;12.80;11.50;;;11.80;94.10;;;;;;4993605;28;20026;-49
2023/05/09 01:35:04;;;;;;;11.52;10.32;;;11.80;94.00;;;;;;4995229;28;20027;-49
2023/05/09 01:37:52;;;;;;;12.00;10.27;;;11.80;94.30;;;;;;4995061;28;20029;-50
2023/05/09 01:40:41;;;;;;;12.75;10.02;;;11.70;94.20;;;;;;4995334;28;20053;-51
2023/05/09 01:43:28;;;;;;;11.98;9.95;;;11.70;94.40;;;;;;4995150;28;20483;-49
2023/05/09 01:46:17;;;;;;;12.63;10.43;;;11.70;94.40;;;;;;4993762;28;20030;-50
2023/05/09 01:49:06;;;;;;;11.13;9.50;;;11.60;94.60;;;;;;5007360;28;20041;-50
2023/05/09 01:51:54;;;;;;;11.55;9.70;;;11.60;94.40;;;;;;4994470;28;20157;-49
2023/05/09 01:54:41;;;;;;;11.27;10.18;;;11.60;94.40;;;;;;4993749;28;20053;-51
2023/05/09 01:57:29;;;;;;;11.73;9.80;;;11.60;94.80;;;;;;4994632;28;20034;-52
2023/05/09 02:00:16;;;;;;;10.65;9.55;;;11.50;94.60;;;;;;4994323;28;20038;-49
2023/05/09 02:03:03;;;;;;;10.77;9.77;;;11.50;94.70;;;;;;4994093;28;20066;-48
2023/05/09 02:05:49;;;;;;;11.15;9.70;;;11.50;94.70;;;;;;4994120;28;20406;-51
2023/05/09 02:08:36;;;;;;;11.23;10.07;;;11.50;94.70;;;;;;4993901;28;20164;-53
2023/05/09 02:11:22;;;;;;;11.27;10.18;;;11.50;94.60;;;;;;4994981;28;20026;-49
2023/05/09 02:14:08;;;;;;;11.23;9.95;;;11.40;94.80;;;;;;4994745;28;20084;-49
2023/05/09 02:16:53;;;;;;;11.00;9.63;;;11.50;94.60;;;;;;4993758;28;20407;-49
2023/05/09 02:19:39;;;;;;;10.30;9.40;;;11.50;94.50;;;;;;4995783;28;20026;-49
2023/05/09 02:22:26;;;;;;;10.52;9.43;;;11.40;94.60;;;;;;5033183;28;20026;-52
2023/05/09 02:25:15;;;;;;;13.10;10.23;;;11.40;94.80;;;;;;5033687;28;20021;-49
2023/05/09 02:28:02;;;;;;;11.07;9.50;;;11.30;94.60;;;;;;5032602;28;20029;-51
2023/05/09 02:30:49;;;;;;;11.55;10.25;;;11.30;94.60;;;;;;5033192;28;20086;-52
2023/05/09 02:33:36;;;;;;;10.98;9.88;;;11.20;94.70;;;;;;5033224;28;20490;-50
2023/05/09 02:36:24;;;;;;;10.77;9.45;;;11.20;94.90;;;;;;5032838;28;20506;-52
2023/05/09 02:39:13;;;;;;;11.45;9.75;;;11.20;94.90;;;;;;5032684;28;20032;-51
2023/05/09 02:42:05;;;;;;;12.52;10.07;;;11.20;94.80;;;;;;5031470;28;20044;-48
2023/05/09 02:44:52;;;;;;;11.23;9.77;;;11.20;94.50;;;;;;5033062;28;20031;-50
2023/05/09 02:47:38;;;;;;;19.17;10.50;;;11.10;94.70;;;;;;5032184;28;20034;-52
2023/05/09 02:50:25;;;;;;;10.45;9.32;;;11.00;94.90;;;;;;5031487;28;20040;-51
2023/05/09 02:53:11;;;;;;;12.23;10.15;;;11.00;95.40;;;;;;5032101;28;20490;-48
2023/05/09 02:55:57;;;;;;;12.95;10.23;;;11.00;95.10;;;;;;5031780;28;20033;-49
2023/05/09 02:58:49;;;;;;;11.07;10.00;;;10.90;95.00;;;;;;5035177;28;20510;-52
2023/05/09 03:01:35;;;;;;;12.30;9.82;;;10.90;95.20;;;;;;5032567;28;20113;-50
2023/05/09 03:04:21;;;;;;;11.90;9.77;;;10.90;95.10;;;;;;5031319;28;20037;-52
2023/05/09 03:07:07;;;;;;;11.45;9.90;;;10.90;95.00;;;;;;5030512;28;20048;-49
2023/05/09 03:09:53;;;;;;;10.68;9.50;;;10.90;95.00;;;;;;5030857;28;20103;-51
2023/05/09 03:12:42;;;;;;;11.43;10.27;;;10.80;95.00;;;;;;5030771;28;20029;-48
2023/05/09 03:15:28;;;;;;;11.60;10.40;;;10.70;95.10;;;;;;5030030;28;20509;-49
2023/05/09 03:18:14;;;;;;;17.98;9.77;;;10.60;95.20;;;;;;5030569;28;20085;-50
2023/05/09 03:21:00;;;;;;;11.85;10.55;;;10.60;95.60;;;;;;5030727;28;20029;-50
2023/05/09 03:23:45;;;;;;;11.32;10.18;;;10.60;95.60;;;;;;5030566;28;20041;-51
2023/05/09 03:26:31;;;;;;;12.40;11.02;;;10.60;95.50;;;;;;5030667;28;20034;-54
2023/05/09 03:29:17;;;;;;;12.15;10.27;;;10.60;95.70;;;;;;5030437;28;20034;-52
2023/05/09 03:32:04;;;;;;;12.18;10.40;;;10.60;95.50;;;;;;5029527;28;20041;-50
2023/05/09 03:34:50;;;;;;;15.43;10.82;;;10.60;95.40;;;;;;5030670;28;20486;-50
2023/05/09 03:37:35;;;;;;;12.50;10.77;;;10.60;95.40;;;;;;5032005;28;20510;-53
2023/05/09 03:40:21;;;;;;;12.13;10.43;;;10.70;95.30;;;;;;5030462;28;20061;-52
2023/05/09 03:43:07;;;;;;;93.10;54.83;;;10.60;95.30;;;;;;5030928;28;20061;-52
2023/05/09 03:45:53;;;;;;;24.52;17.17;;;10.60;95.30;;;;;;5030773;28;20037;-51
2023/05/09 03:48:39;;;;;;;12.98;11.15;;;10.50;95.30;;;;;;5030315;28;20477;-51
2023/05/09 03:51:25;;;;;;;13.48;9.77;;;10.50;95.40;;;;;;5030647;28;20379;-53
2023/05/09 03:54:11;;;;;;;10.98;9.88;;;10.50;95.40;;;;;;5031519;28;20207;-50
2023/05/09 03:56:57;;;;;;;13.18;10.43;;;10.50;95.40;;;;;;5029885;28;20021;-52
2023/05/09 03:59:43;;;;;;;12.07;10.70;;;10.50;95.50;;;;;;5030483;28;20044;-48
2023/05/09 04:02:29;;;;;;;12.85;11.38;;;10.50;95.60;;;;;;5029890;28;20026;-51
2023/05/09 04:05:15;;;;;;;68.05;42.40;;;10.60;95.60;;;;;;5031820;28;20052;-52
2023/05/09 04:08:02;;;;;;;41.33;25.15;;;10.50;95.50;;;;;;5030216;28;20037;-51
2023/05/09 04:10:50;;;;;;;15.77;11.43;;;10.60;95.50;;;;;;5031103;28;20076;-49
2023/05/09 04:13:36;;;;;;;13.98;11.07;;;10.60;95.50;;;;;;5031674;28;20036;-53
2023/05/09 04:16:21;;;;;;;11.85;10.57;;;10.60;95.40;;;;;;5029848;28;20030;-50
2023/05/09 04:19:07;;;;;;;11.55;10.43;;;10.60;95.20;;;;;;5030632;28;20091;-49
2023/05/09 04:21:53;;;;;;;12.52;11.23;;;10.50;95.30;;;;;;5030575;28;20397;-49
2023/05/09 04:24:39;;;;;;;11.98;10.57;;;10.50;95.30;;;;;;5029982;28;20529;-49
2023/05/09 04:27:26;;;;;;;12.43;10.45;;;10.60;95.30;;;;;;5030388;28;20060;-56
2023/05/09 04:30:13;;;;;;;15.73;10.77;;;10.60;95.50;;;;;;5031870;28;20397;-52
2023/05/09 04:32:59;;;;;;;13.50;10.05;;;10.60;95.60;;;;;;5031276;28;20034;-54
2023/05/09 04:35:45;;;;;;;14.40;10.95;;;10.60;95.50;;;;;;5036038;28;20240;-55
2023/05/09 04:38:30;;;;;;;13.98;10.32;;;10.70;95.50;;;;;;5032312;28;20026;-51
2023/05/09 04:41:16;;;;;;;12.02;10.82;;;10.70;95.30;;;;;;5029743;28;20490;-51
2023/05/09 04:44:02;;;;;;;15.52;10.30;;;10.70;95.30;;;;;;5031686;28;20030;-53
2023/05/09 04:46:49;;;;;;;12.38;10.32;;;10.80;95.30;;;;;;5033791;28;20037;-50
2023/05/09 04:49:35;;;;;;;12.90;9.88;;;10.70;95.20;;;;;;5034831;28;20037;-51
2023/05/09 04:52:21;;;;;;;15.60;9.88;;;10.70;95.30;;;;;;5034425;28;20033;-52
2023/05/09 04:55:07;;;;;;;10.77;9.68;;;10.70;95.40;;;;;;5033196;28;20116;-53
2023/05/09 04:57:53;;;;;;;11.80;9.82;;;10.70;95.40;;;;;;5034813;28;20033;-51
2023/05/09 05:00:39;;;;;;;11.13;9.60;;;10.70;95.40;;;;;;5033240;28;20030;-51
2023/05/09 05:03:25;;;;;;;13.13;9.73;;;10.70;95.30;;;;;;5034239;28;20041;-53
2023/05/09 05:06:11;;;;;;;10.90;9.15;;;10.80;95.20;;;;;;5033468;28;20414;-51
2023/05/09 05:08:57;;;;;;;13.05;10.07;;;10.80;95.10;;;;;;5033422;28;20044;-52
2023/05/09 05:11:43;;;;;;;14.00;10.50;;;10.80;95.10;;;;;;5033601;28;20089;-54
2023/05/09 05:14:29;;;;;;;12.93;10.23;;;10.90;95.20;;;;;;5036485;28;20087;-55
2023/05/09 05:17:17;;;;;;;11.88;9.32;;;10.90;95.20;;;;;;5035816;28;20037;-55
2023/05/09 05:20:05;;;;;;;12.00;10.32;;;11.00;95.20;;;;;;5034836;28;20018;-53
2023/05/09 05:22:53;;;;;;;12.82;9.55;;;11.00;95.30;;;;;;5034930;28;20129;-52
2023/05/09 05:25:39;;;;;;;11.40;9.68;;;11.10;95.00;;;;;;5034313;28;20048;-53
2023/05/09 05:28:25;;;;;;;10.98;9.88;;;11.20;95.00;;;;;;5033580;28;20037;-54
2023/05/09 05:31:11;;;;;;;12.75;9.73;;;11.20;94.80;;;;;;5034191;28;20521;-53
2023/05/09 05:33:57;;;;;;;12.93;9.15;;;11.30;94.90;;;;;;5038613;28;20113;-54
2023/05/09 05:36:43;;;;;;;10.57;9.45;;;11.40;94.80;;;;;;5033598;28;20120;-52
2023/05/09 05:39:29;;;;;;;11.93;9.50;;;11.50;94.60;;;;;;5033171;28;20044;-49
2023/05/09 05:42:14;;;;;;;11.80;8.90;;;11.50;94.40;;;;;;5032600;28;20040;-49
2023/05/09 05:45:03;;;;;;;10.95;8.75;;;11.60;94.50;;;;;;5033221;28;20034;-50
2023/05/09 05:47:49;;;;;;;9.82;8.25;;;11.60;94.50;;;;;;5003716;28;20022;-47
2023/05/09 05:50:35;;;;;;;9.15;8.23;;;11.80;94.30;;;;;;5004679;28;20038;-48
2023/05/09 05:53:21;;;;;;;9.93;8.98;;;11.90;94.10;;;;;;5001936;28;20035;-47
2023/05/09 05:56:07;;;;;;;13.15;8.63;;;11.90;93.80;;;;;;5002355;28;20027;-47
2023/05/09 05:58:53;;;;;;;10.98;8.23;;;12.00;93.90;;;;;;5005071;28;20113;-46
2023/05/09 06:01:39;;;;;;;13.30;9.73;;;12.10;93.70;;;;;;5004882;28;20038;-48
2023/05/09 06:04:25;;;;;;;10.02;8.77;;;12.00;93.50;;;;;;5002303;28;20034;-48
2023/05/09 06:07:12;;;;;;;10.05;8.52;;;12.00;93.60;;;;;;5006658;28;20056;-48
2023/05/09 06:09:58;;;;;;;14.77;9.40;;;12.10;93.70;;;;;;5012962;28;20018;-50
2023/05/09 06:12:44;;;;;;;11.60;8.30;;;12.20;93.70;;;;;;5012839;28;20041;-48
2023/05/09 06:15:30;;;;;;;12.48;8.85;;;12.30;93.50;;;;;;5012939;28;20038;-49
2023/05/09 06:18:16;;;;;;;11.68;8.13;;;12.40;93.20;;;;;;5013274;28;20120;-53
2023/05/09 06:21:06;;;;;;;9.90;8.15;;;12.50;93.00;;;;;;5013374;28;20510;-51
2023/05/09 06:23:52;;;;;;;9.38;8.10;;;12.60;92.40;;;;;;5012794;28;20407;-50
2023/05/09 06:26:38;;;;;;;12.38;9.50;;;12.60;92.30;;;;;;5007182;28;20026;-49
2023/05/09 06:29:24;;;;;;;8.20;7.40;;;12.70;92.30;;;;;;5001905;28;20030;-50
2023/05/09 06:32:10;;;;;;;8.40;7.53;;;12.80;92.20;;;;;;5014695;28;20058;-48
2023/05/09 06:34:56;;;;;;;11.70;8.48;;;12.80;92.10;;;;;;5010113;28;20038;-51
2023/05/09 06:37:41;;;;;;;11.57;7.78;;;12.90;91.80;;;;;;5001492;28;20054;-50
2023/05/09 06:40:27;;;;;;;10.60;7.47;;;13.00;91.90;;;;;;5004782;28;20081;-48
2023/05/09 06:43:13;;;;;;;10.40;7.90;;;13.10;91.70;;;;;;5001871;28;20105;-50
2023/05/09 06:45:59;;;;;;;9.23;7.88;;;13.10;91.50;;;;;;5002032;28;20053;-53
2023/05/09 06:48:45;;;;;;;11.88;7.70;;;13.30;91.50;;;;;;5000903;28;20037;-49
2023/05/09 06:51:31;;;;;;;8.50;7.47;;;13.40;91.40;;;;;;5007742;28;20105;-51
2023/05/09 06:54:17;;;;;;;8.40;6.90;;;13.50;91.30;;;;;;4998270;28;20038;-50
2023/05/09 06:57:03;;;;;;;10.27;7.25;;;13.60;91.40;;;;;;4992963;28;20098;-47
2023/05/09 06:59:49;;;;;;;9.52;7.03;;;13.70;91.10;;;;;;5009539;28;20649;-50
2023/05/09 07:02:35;;;;;;;8.80;7.47;;;13.80;91.10;;;;;;5012621;28;20061;-51
2023/05/09 07:05:21;;;;;;;13.77;8.02;;;13.90;91.10;;;;;;5012850;28;20030;-61
2023/05/09 07:08:07;;;;;;;9.27;6.53;;;13.80;90.60;;;;;;5000973;28;20057;-49
2023/05/09 07:10:53;;;;;;;9.82;7.32;;;13.90;90.40;;;;;;4998432;28;20105;-53
2023/05/09 07:13:39;;;;;;;10.10;6.53;;;14.00;90.20;;;;;;5013479;28;20033;-52
2023/05/09 07:16:28;;;;;;;9.40;6.93;;;14.20;90.10;;;;;;4993553;28;20042;-51
2023/05/09 07:19:14;;;;;;;9.10;7.00;;;14.20;90.10;;;;;;4992958;28;20030;-48
2023/05/09 07:22:00;;;;;;;9.93;7.78;;;14.30;90.10;;;;;;4992049;28;20045;-49
2023/05/09 07:24:46;;;;;;;13.73;7.65;;;14.30;89.70;;;;;;4991603;28;20042;-50
2023/05/09 07:27:32;;;;;;;16.52;7.40;;;14.40;89.70;;;;;;4993248;28;20038;-51
2023/05/09 07:30:18;;;;;;;10.68;6.80;;;14.50;89.50;;;;;;4996543;28;20026;-47
2023/05/09 07:33:05;;;;;;;11.60;6.78;;;14.60;89.40;;;;;;4993974;28;20070;-49
2023/05/09 07:35:51;;;;;;;9.95;6.75;;;14.60;88.80;;;;;;4992407;28;20121;-55
2023/05/09 07:38:39;;;;;;;9.70;6.32;;;14.70;88.70;;;;;;4992051;28;20030;-48
2023/05/09 07:41:25;;;;;;;9.68;7.13;;;14.80;88.40;;;;;;4991898;28;20068;-51
2023/05/09 07:44:11;;;;;;;9.32;6.70;;;14.90;87.70;;;;;;4991775;28;20042;-50
2023/05/09 07:47:01;;;;;;;8.10;6.50;;;14.90;87.10;;;;;;5008210;28;20037;-50
2023/05/09 07:49:47;;;;;;;9.07;6.20;;;15.00;87.20;;;;;;5003914;28;20036;-49
2023/05/09 07:52:35;;;;;;;8.65;7.07;;;15.00;86.40;;;;;;4994856;28;20038;-49
2023/05/09 07:55:21;;;;;;;12.68;6.75;;;15.10;86.40;;;;;;5007042;28;20413;-49
2023/05/09 07:58:07;;;;;;;10.30;6.88;;;15.10;86.70;;;;;;5010608;28;20040;-51
2023/05/09 08:00:55;;;;;;;11.30;6.97;;;15.20;87.00;;;;;;5011459;28;20076;-52
2023/05/09 08:03:41;;;;;;;13.57;7.32;;;15.30;86.70;;;;;;5011722;28;20085;-51
2023/05/09 08:06:27;;;;;;;11.38;6.75;;;15.50;86.50;;;;;;5011114;28;20037;-53
2023/05/09 08:09:13;;;;;;;8.95;6.05;;;15.50;86.40;;;;;;5010707;28;20042;-50
2023/05/09 08:11:59;;;;;;;7.88;6.20;;;15.60;87.00;;;;;;5011495;28;20045;-50
2023/05/09 08:14:45;;;;;;;12.55;6.88;;;15.70;86.20;;;;;;5011900;28;20084;-51
2023/05/09 08:17:31;;;;;;;6.85;6.15;;;15.80;85.80;;;;;;5010992;28;20040;-52
2023/05/09 08:20:17;;;;;;;10.88;6.70;;;15.80;85.60;;;;;;5015013;28;20029;-52
2023/05/09 08:23:03;;;;;;;7.53;6.45;;;15.80;85.10;;;;;;5015924;28;20033;-48
2023/05/09 08:25:55;;;;;;;7.28;6.57;;;15.80;85.30;;;;;;5014938;28;20104;-50
2023/05/09 08:28:41;;;;;;;11.77;6.90;;;15.90;85.40;;;;;;5016190;28;20137;-51
2023/05/09 08:31:27;;;;;;;7.55;6.75;;;16.00;85.30;;;;;;5015862;28;20045;-50
2023/05/09 08:34:13;;;;;;;8.45;6.57;;;16.00;84.80;;;;;;5015287;28;20030;-50
2023/05/09 08:37:00;;;;;;;11.52;6.78;;;16.10;85.30;;;;;;5015087;28;20034;-51
2023/05/09 08:39:46;;;;;;;10.15;6.53;;;16.00;84.80;;;;;;5014654;28;20101;-50
2023/05/09 08:42:35;;;;;;;10.00;6.78;;;16.10;84.60;;;;;;5014969;28;20026;-50
2023/05/09 08:45:28;;;;;;;7.55;6.63;;;16.20;84.80;;;;;;5015164;28;20034;-51
2023/05/09 08:48:15;;;;;;;10.63;6.00;;;16.40;85.20;;;;;;5015302;28;20085;-51
2023/05/09 08:51:03;;;;;;;9.20;6.38;;;16.50;84.40;;;;;;5015667;28;20040;-53
2023/05/09 08:53:50;;;;;;;8.05;6.53;;;16.50;84.10;;;;;;5015297;28;20042;-52
2023/05/09 08:56:36;;;;;;;10.15;6.13;;;16.50;83.80;;;;;;5013879;28;20062;-53
2023/05/09 08:59:23;;;;;;;8.13;6.03;;;16.60;83.70;;;;;;5014999;28;20050;-50
2023/05/09 09:02:13;;;;;;;7.68;6.35;;;16.70;83.40;;;;;;5015043;28;20034;-52
2023/05/09 09:04:59;;;;;;;9.02;6.15;;;16.80;83.20;;;;;;5015016;28;20068;-51
2023/05/09 09:07:45;;;;;;;9.60;6.60;;;17.00;82.80;;;;;;5020744;28;20119;-50
2023/05/09 09:10:32;;;;;;;8.40;5.80;;;17.10;82.00;;;;;;5018612;28;20034;-51
2023/05/09 09:13:19;;;;;;;10.13;6.05;;;17.20;81.50;;;;;;5015541;28;20046;-50
2023/05/09 09:16:08;;;;;;;7.80;5.85;;;17.30;81.40;;;;;;5014456;28;20030;-51
2023/05/09 09:18:57;;;;;;;7.40;5.43;;;17.50;81.10;;;;;;5014625;28;20384;-48
2023/05/09 09:21:49;;;;;;;8.90;6.30;;;17.50;80.60;;;;;;5014491;28;20513;-53
2023/05/09 09:24:35;;;;;;;11.15;6.40;;;17.50;80.10;;;;;;5014674;28;20514;-50
2023/05/09 09:27:21;;;;;;;8.77;6.35;;;17.60;79.70;;;;;;5014065;28;20116;-51
2023/05/09 09:30:09;;;;;;;8.27;6.05;;;17.80;80.70;;;;;;5014077;28;20038;-51
2023/05/09 09:32:58;;;;;;;9.02;5.90;;;17.80;80.70;;;;;;5014193;28;20030;-54
2023/05/09 09:35:44;;;;;;;10.50;5.85;;;17.80;78.50;;;;;;5014240;28;20065;-50
2023/05/09 09:38:40;;;;;;;8.32;5.95;;;17.60;79.50;;;;;;5013687;28;20065;-51
2023/05/09 09:41:33;;;;;;;6.80;5.40;;;17.80;79.60;;;;;;5014740;28;20056;-49
2023/05/09 09:44:21;;;;;;;10.48;5.38;;;17.90;79.80;;;;;;5013998;28;20120;-53
2023/05/09 09:47:10;;;;;;;8.10;5.78;;;18.00;78.90;;;;;;5017167;28;20061;-50
2023/05/09 09:49:56;;;;;;;6.70;5.88;;;18.20;78.00;;;;;;5015004;28;20040;-51
2023/05/09 09:52:53;;;;;;;8.07;6.15;;;18.10;77.70;;;;;;5013506;28;20042;-51
2023/05/09 09:55:49;;;;;;;5.82;4.70;;;18.20;77.20;;;;;;5013502;28;20033;-51
2023/05/09 09:58:35;;;;;;;6.35;5.20;;;18.20;77.20;;;;;;5013185;28;20500;-51
2023/05/09 10:01:22;;;;;;;12.38;5.45;;;18.30;76.60;;;;;;5014020;28;20038;-50
2023/05/09 10:04:14;;;;;;;7.25;5.25;;;18.40;76.60;;;;;;5013452;28;20061;-51
2023/05/09 10:07:03;;;;;;;9.63;5.63;;;18.30;76.00;;;;;;5013829;28;20524;-48
2023/05/09 10:09:50;;;;;;;7.97;5.72;;;18.20;76.10;;;;;;5013592;28;20034;-51
2023/05/09 10:12:36;;;;;;;9.15;5.65;;;18.30;76.40;;;;;;5015811;28;20121;-50
2023/05/09 10:15:23;;;;;;;6.20;4.93;;;18.20;76.30;;;;;;5012885;28;20148;-49
2023/05/09 10:18:13;;;;;;;9.73;5.30;;;18.30;77.30;;;;;;5013357;28;20026;-50
2023/05/09 10:21:00;;;;;;;8.20;5.30;;;18.50;76.50;;;;;;5013365;28;20037;-50
2023/05/09 10:23:49;;;;;;;7.90;5.45;;;18.50;76.10;;;;;;5013185;28;20030;-49
2023/05/09 10:26:40;;;;;;;7.93;5.40;;;18.50;76.50;;;;;;5014030;28;20540;-48
2023/05/09 10:29:28;;;;;;;11.95;5.30;;;18.60;76.40;;;;;;5013021;28;20042;-48
2023/05/09 10:32:26;;;;;;;6.55;5.28;;;18.60;75.00;;;;;;5013776;28;20046;-47
2023/05/09 10:35:15;;;;;;;7.47;4.82;;;18.70;74.90;;;;;;5013018;28;20041;-48
2023/05/09 10:38:02;;;;;;;8.15;4.88;;;18.90;75.40;;;;;;5013466;28;20030;-49
2023/05/09 10:40:48;;;;;;;11.63;6.10;;;19.20;74.30;;;;;;5013426;28;20085;-51
2023/05/09 10:43:35;;;;;;;9.82;4.82;;;19.20;74.30;;;;;;5012617;28;20088;-50
2023/05/09 10:46:22;;;;;;;8.23;5.10;;;19.00;74.30;;;;;;5012809;28;20037;-49
2023/05/09 10:49:08;;;;;;;9.48;5.18;;;19.10;73.80;;;;;;5012902;28;20061;-49
2023/05/09 10:51:54;;;;;;;8.95;5.05;;;19.20;73.10;;;;;;5013687;28;20038;-51
2023/05/09 10:54:40;;;;;;;8.95;5.00;;;19.20;72.70;;;;;;5011824;28;20038;-50
2023/05/09 10:57:31;;;;;;;9.88;5.05;;;19.30;73.00;;;;;;5012206;28;20022;-51
2023/05/09 11:00:23;;;;;;;8.38;5.40;;;19.40;72.80;;;;;;5012677;28;20034;-52
2023/05/09 11:03:09;;;;;;;7.82;5.25;;;19.30;72.00;;;;;;5013234;28;20030;-48
2023/05/09 11:05:57;;;;;;;8.98;5.93;;;19.30;72.00;;;;;;5013128;28;20038;-46
2023/05/09 11:08:43;;;;;;;9.77;5.40;;;19.40;72.40;;;;;;5012699;28;20472;-49
2023/05/09 11:11:29;;;;;;;7.38;5.07;;;19.40;72.80;;;;;;5012048;28;20124;-51
2023/05/09 11:14:28;;;;;;;8.60;5.82;;;19.50;72.10;;;;;;5011308;28;20038;-50
2023/05/09 11:17:21;;;;;;;6.88;4.95;;;19.30;72.40;;;;;;5013326;28;20065;-48
2023/05/09 11:20:08;;;;;;;10.70;5.40;;;19.40;72.40;;;;;;5012843;28;20095;-51
2023/05/09 11:22:57;;;;;;;7.03;5.32;;;19.50;73.40;;;;;;5012629;28;20044;-49
2023/05/09 11:25:47;;;;;;;9.52;6.50;;;19.60;73.60;;;;;;5018826;28;20038;-49
2023/05/09 11:28:35;;;;;;;7.55;5.78;;;19.70;72.60;;;;;;5012671;28;20089;-52
2023/05/09 11:31:21;;;;;;;7.15;5.53;;;19.90;72.50;;;;;;5013212;28;20089;-51
2023/05/09 11:34:08;;;;;;;11.27;5.32;;;20.00;71.90;;;;;;5011962;28;20038;-48
2023/05/09 11:37:08;;;;;;;9.88;6.38;;;20.00;72.30;;;;;;5011803;28;20056;-48
2023/05/09 11:39:59;;;;;;;6.90;5.13;;;20.00;71.80;;;;;;5012408;28;20125;-49
2023/05/09 11:42:48;;;;;;;6.75;5.15;;;20.10;71.50;;;;;;5012128;28;20446;-47
2023/05/09 11:45:34;;;;;;;9.65;5.70;;;20.10;71.80;;;;;;5012426;28;20438;-50
2023/05/09 11:48:22;;;;;;;8.48;5.53;;;20.10;72.00;;;;;;5010907;28;20030;-50
2023/05/09 11:51:18;;;;;;;7.10;5.13;;;20.20;71.90;;;;;;5011886;28;20072;-49
2023/05/09 11:54:06;;;;;;;7.57;5.20;;;20.30;71.40;;;;;;5010978;28;20036;-52
2023/05/09 11:56:52;;;;;;;6.25;5.47;;;20.40;71.20;;;;;;5011009;28;20025;-52
2023/05/09 11:59:38;;;;;;;6.07;5.40;;;20.40;71.30;;;;;;5011291;28;20041;-50
2023/05/09 12:02:24;;;;;;;10.40;6.28;;;20.30;71.00;;;;;;5012942;28;20022;-49
2023/05/09 12:05:12;;;;;;;8.13;6.07;;;20.30;71.50;;;;;;5013010;28;20037;-49
2023/05/09 12:08:03;;;;;;;11.95;5.40;;;20.40;71.60;;;;;;5011395;28;20033;-48
2023/05/09 12:10:50;;;;;;;8.68;5.93;;;20.40;70.70;;;;;;5010328;28;20053;-49
2023/05/09 12:13:44;;;;;;;11.15;5.78;;;20.40;71.20;;;;;;5011708;28;20601;-49
2023/05/09 12:16:30;;;;;;;7.78;5.45;;;20.60;69.60;;;;;;5011045;28;20053;-51
2023/05/09 12:19:18;;;;;;;7.78;5.70;;;20.70;70.20;;;;;;5010643;28;20117;-48
2023/05/09 12:22:07;;;;;;;9.95;6.93;;;20.70;69.60;;;;;;5012134;28;20038;-54
2023/05/09 12:24:53;;;;;;;8.15;5.47;;;20.70;69.60;;;;;;5012064;28;20083;-51
2023/05/09 12:27:40;;;;;;;5.45;4.95;;;20.90;69.70;;;;;;5010818;28;20029;-51
2023/05/09 12:30:26;;;;;;;8.52;5.13;;;21.00;69.80;;;;;;4997274;28;20042;-48
2023/05/09 12:33:13;;;;;;;6.20;5.15;;;21.10;69.70;;;;;;5010149;28;20057;-50
2023/05/09 12:36:10;;;;;;;7.68;5.10;;;21.30;69.00;;;;;;5010895;28;20022;-49
2023/05/09 12:38:56;;;;;;;6.38;4.63;;;21.40;69.00;;;;;;5012016;28;20036;-48
2023/05/09 12:41:44;;;;;;;11.20;5.03;;;21.60;68.70;;;;;;5010476;28;20032;-51
2023/05/09 12:44:30;;;;;;;7.72;4.90;;;21.70;68.50;;;;;;5012300;28;20025;-49
2023/05/09 12:47:16;;;;;;;8.30;5.38;;;21.80;68.50;;;;;;5010604;28;20117;-49
2023/05/09 12:50:05;;;;;;;6.57;5.05;;;21.90;68.00;;;;;;5010903;28;20038;-49
2023/05/09 12:52:54;;;;;;;7.97;5.05;;;22.00;68.30;;;;;;5011039;28;20038;-49
2023/05/09 12:55:40;;;;;;;7.53;4.65;;;21.80;68.30;;;;;;5011227;28;20080;-51
2023/05/09 12:58:30;;;;;;;7.88;4.70;;;22.00;67.40;;;;;;5010596;28;20050;-49
2023/05/09 13:01:17;;;;;;;9.73;4.75;;;22.10;67.20;;;;;;5011138;28;20466;-49
2023/05/09 13:04:05;;;;;;;6.65;4.40;;;22.10;66.20;;;;;;5011160;28;20026;-48
2023/05/09 13:06:56;;;;;;;6.85;4.88;;;22.10;65.70;;;;;;5014250;28;20026;-51
2023/05/09 13:09:59;;;;;;;5.18;4.43;;;22.10;64.70;;;;;;5016131;28;20071;-51
2023/05/09 13:12:47;;;;;;;10.98;4.63;;;22.10;64.20;;;;;;5014470;28;20513;-50
2023/05/09 13:15:33;;;;;;;4.80;4.10;;;22.00;63.50;;;;;;5015681;28;20495;-49
2023/05/09 13:18:20;;;;;;;6.40;4.63;;;21.90;63.90;;;;;;5013595;28;20625;-48
2023/05/09 13:21:06;;;;;;;5.22;4.10;;;22.30;64.60;;;;;;5014403;28;20096;-51
2023/05/09 13:23:52;;;;;;;6.68;4.80;;;22.60;64.50;;;;;;5014124;28;20029;-51
2023/05/09 13:26:38;;;;;;;8.63;4.93;;;22.70;63.70;;;;;;5013753;28;20486;-51
2023/05/09 13:29:27;;;;;;;7.78;4.50;;;22.70;63.60;;;;;;5013973;28;20038;-49
2023/05/09 13:32:13;;;;;;;6.93;4.60;;;22.50;63.60;;;;;;5014217;28;20038;-52
2023/05/09 13:34:59;;;;;;;7.40;4.40;;;22.80;63.20;;;;;;5014053;28;20079;-53
2023/05/09 13:37:45;;;;;;;11.07;4.53;;;23.10;63.30;;;;;;5013212;28;20164;-51
2023/05/09 13:40:31;;;;;;;5.65;4.47;;;23.10;62.30;;;;;;5014718;28;20052;-52
2023/05/09 13:43:17;;;;;;;5.18;4.22;;;23.20;62.60;;;;;;5015562;28;20098;-49
2023/05/09 13:46:03;;;;;;;6.88;4.00;;;23.20;63.50;;;;;;5014838;28;20036;-49
2023/05/09 13:48:49;;;;;;;10.63;4.85;;;23.40;62.40;;;;;;5014150;28;20030;-52
2023/05/09 13:51:35;;;;;;;8.85;5.25;;;23.60;63.00;;;;;;5013565;28;20487;-51
2023/05/09 13:54:21;;;;;;;9.52;4.80;;;23.70;62.70;;;;;;5010748;28;20045;-50
2023/05/09 13:57:07;;;;;;;9.05;4.60;;;23.70;61.80;;;;;;5012993;28;20407;-56
2023/05/09 13:59:53;;;;;;;7.30;4.68;;;23.80;62.40;;;;;;5013248;28;20025;-50
2023/05/09 14:02:40;;;;;;;9.73;4.25;;;23.90;62.40;;;;;;5014293;28;20076;-50
2023/05/09 14:05:27;;;;;;;7.80;4.28;;;24.10;61.40;;;;;;5013301;28;20511;-51
2023/05/09 14:08:13;;;;;;;8.38;4.72;;;24.30;60.50;;;;;;5012238;28;20033;-49
2023/05/09 14:11:00;;;;;;;11.30;4.35;;;24.40;60.30;;;;;;5012598;28;20034;-49
2023/05/09 14:13:46;;;;;;;5.72;5.07;;;24.20;60.00;;;;;;5013016;28;20034;-53
2023/05/09 14:16:32;;;;;;;9.45;4.88;;;24.30;60.20;;;;;;5010957;28;20022;-51
2023/05/09 14:19:18;;;;;;;10.25;7.20;;;24.50;60.40;;;;;;5026862;28;20059;-48
2023/05/09 14:22:04;;;;;;;9.00;4.70;;;24.60;59.40;;;;;;5033307;28;20021;-48